YPKG/KGI METAR and TAF weather

Enter ICAO airport designator
Station Type Date Time Source
YPKG METAR 2019/06/26 17:00 UTC NOAA

YPKG 261700Z AUTO 33009KT 9999 // BKN021 OVC025 15/13 Q1010


Station Type Date Time Source
YPKG Decoded METAR 2019/06/26 17:00 UTC NOAA

Kalgoorlie Boulder Amo, Australia (YPKG) 30-47S 121-27E 370M
Jun 26, 2019 - 01:00 PM EDT / 2019.06.26 1700 UTC
Wind: from the NNW (330 degrees) at 10 MPH (9 KT):0
Visibility: greater than 7 mile(s):0
Sky conditions: overcast
Temperature: 59 F (15 C)
Dew Point: 55 F (13 C)
Relative Humidity: 87%
Pressure (altimeter): 29.83 in. Hg (1010 hPa)
ob: YPKG 261700Z AUTO 33009KT 9999 // BKN021 OVC025 15/13 Q1010
cycle: 17

Station Type Date Time Source
YPKG TAF 2019/06/26 18:00 UTC NOAA

TAF
AMD YPKG 261706Z 2618/2718 31012KT 9999 SCT020
FM262200 31012KT 9999 -SHRA BKN020
FM270200 29014KT CAVOK
TEMPO 2622/2702 5000 SHRA BKN010

Example: see airport list